sensor_id;sensor_type;location;lat;lon;timestamp;P1;durP1;ratioP1;P2;durP2;ratioP2
7525;SDS011;3804;50.860;6.208;2022-09-28T00:01:42;0.10;;;0.10;;
7525;SDS011;3804;50.860;6.208;2022-09-28T00:04:09;0.10;;;0.10;;
7525;SDS011;3804;50.860;6.208;2022-09-28T00:06:36;0.10;;;0.10;;
7525;SDS011;3804;50.860;6.208;2022-09-28T00:09:03;0.10;;;0.10;;
7525;SDS011;3804;50.860;6.208;2022-09-28T00:11:30;0.10;;;0.10;;
7525;SDS011;3804;50.860;6.208;2022-09-28T00:13:57;1.10;;;1.10;;
7525;SDS011;3804;50.860;6.208;2022-09-28T00:16:27;0.10;;;0.10;;
7525;SDS011;3804;50.860;6.208;2022-09-28T00:18:54;0.10;;;0.10;;
7525;SDS011;3804;50.860;6.208;2022-09-28T00:21:21;0.10;;;0.10;;
7525;SDS011;3804;50.860;6.208;2022-09-28T00:23:52;0.10;;;0.10;;
7525;SDS011;3804;50.860;6.208;2022-09-28T00:26:38;0.10;;;0.10;;
7525;SDS011;3804;50.860;6.208;2022-09-28T00:29:07;0.10;;;0.10;;
7525;SDS011;3804;50.860;6.208;2022-09-28T00:31:34;0.10;;;0.10;;
7525;SDS011;3804;50.860;6.208;2022-09-28T00:34:00;0.20;;;0.20;;
7525;SDS011;3804;50.860;6.208;2022-09-28T00:36:28;0.10;;;0.10;;
7525;SDS011;3804;50.860;6.208;2022-09-28T00:38:55;0.20;;;0.20;;
7525;SDS011;3804;50.860;6.208;2022-09-28T00:41:22;0.10;;;0.10;;
7525;SDS011;3804;50.860;6.208;2022-09-28T00:43:50;0.10;;;0.10;;
7525;SDS011;3804;50.860;6.208;2022-09-28T00:48:49;0.20;;;0.20;;
7525;SDS011;3804;50.860;6.208;2022-09-28T00:51:18;0.20;;;0.20;;
7525;SDS011;3804;50.860;6.208;2022-09-28T00:53:44;0.10;;;0.10;;
7525;SDS011;3804;50.860;6.208;2022-09-28T00:56:13;0.17;;;0.17;;
7525;SDS011;3804;50.860;6.208;2022-09-28T00:58:41;0.20;;;0.20;;
7525;SDS011;3804;50.860;6.208;2022-09-28T01:01:08;0.10;;;0.10;;
7525;SDS011;3804;50.860;6.208;2022-09-28T01:03:35;0.10;;;0.10;;
7525;SDS011;3804;50.860;6.208;2022-09-28T01:06:03;0.10;;;0.10;;
7525;SDS011;3804;50.860;6.208;2022-09-28T01:08:30;0.10;;;0.10;;
7525;SDS011;3804;50.860;6.208;2022-09-28T01:10:58;0.53;;;0.53;;
7525;SDS011;3804;50.860;6.208;2022-09-28T01:13:26;0.10;;;0.10;;
7525;SDS011;3804;50.860;6.208;2022-09-28T01:18:30;0.20;;;0.20;;
7525;SDS011;3804;50.860;6.208;2022-09-28T01:21:01;0.43;;;0.43;;
7525;SDS011;3804;50.860;6.208;2022-09-28T01:28:48;0.10;;;0.10;;
7525;SDS011;3804;50.860;6.208;2022-09-28T01:31:16;0.30;;;0.30;;
7525;SDS011;3804;50.860;6.208;2022-09-28T01:33:45;0.17;;;0.17;;
7525;SDS011;3804;50.860;6.208;2022-09-28T01:36:17;0.20;;;0.20;;
7525;SDS011;3804;50.860;6.208;2022-09-28T01:38:49;0.10;;;0.10;;
7525;SDS011;3804;50.860;6.208;2022-09-28T01:41:18;0.10;;;0.10;;
7525;SDS011;3804;50.860;6.208;2022-09-28T01:43:48;0.10;;;0.10;;
7525;SDS011;3804;50.860;6.208;2022-09-28T01:46:19;0.10;;;0.10;;
7525;SDS011;3804;50.860;6.208;2022-09-28T01:48:53;0.13;;;0.13;;
7525;SDS011;3804;50.860;6.208;2022-09-28T01:51:26;0.10;;;0.10;;
7525;SDS011;3804;50.860;6.208;2022-09-28T01:53:56;0.10;;;0.10;;
7525;SDS011;3804;50.860;6.208;2022-09-28T01:56:31;0.20;;;0.20;;
7525;SDS011;3804;50.860;6.208;2022-09-28T01:59:02;0.20;;;0.20;;
7525;SDS011;3804;50.860;6.208;2022-09-28T02:01:39;0.10;;;0.10;;
7525;SDS011;3804;50.860;6.208;2022-09-28T02:04:10;0.20;;;0.20;;
7525;SDS011;3804;50.860;6.208;2022-09-28T02:06:45;0.10;;;0.10;;
7525;SDS011;3804;50.860;6.208;2022-09-28T02:09:25;0.57;;;0.57;;
7525;SDS011;3804;50.860;6.208;2022-09-28T02:12:00;0.10;;;0.10;;
7525;SDS011;3804;50.860;6.208;2022-09-28T02:14:30;0.10;;;0.10;;
7525;SDS011;3804;50.860;6.208;2022-09-28T02:16:58;0.20;;;0.20;;
7525;SDS011;3804;50.860;6.208;2022-09-28T02:19:29;0.10;;;0.10;;
7525;SDS011;3804;50.860;6.208;2022-09-28T02:24:40;0.10;;;0.10;;
7525;SDS011;3804;50.860;6.208;2022-09-28T02:27:13;0.10;;;0.10;;
7525;SDS011;3804;50.860;6.208;2022-09-28T02:29:40;0.10;;;0.10;;
7525;SDS011;3804;50.860;6.208;2022-09-28T02:32:07;1.13;;;1.13;;
7525;SDS011;3804;50.860;6.208;2022-09-28T02:34:34;0.10;;;0.10;;
7525;SDS011;3804;50.860;6.208;2022-09-28T02:37:01;0.20;;;0.20;;
7525;SDS011;3804;50.860;6.208;2022-09-28T02:39:28;0.13;;;0.13;;
7525;SDS011;3804;50.860;6.208;2022-09-28T02:47:08;11.20;;;6.93;;
7525;SDS011;3804;50.860;6.208;2022-09-28T02:49:42;10.83;;;7.57;;
7525;SDS011;3804;50.860;6.208;2022-09-28T02:52:23;11.20;;;7.47;;
7525;SDS011;3804;50.860;6.208;2022-09-28T02:54:56;10.20;;;8.07;;
7525;SDS011;3804;50.860;6.208;2022-09-28T02:57:30;10.77;;;8.20;;
7525;SDS011;3804;50.860;6.208;2022-09-28T03:02:46;8.37;;;7.57;;
7525;SDS011;3804;50.860;6.208;2022-09-28T03:05:36;13.03;;;9.07;;
7525;SDS011;3804;50.860;6.208;2022-09-28T03:08:05;11.90;;;8.50;;
7525;SDS011;3804;50.860;6.208;2022-09-28T03:10:37;11.50;;;7.97;;
7525;SDS011;3804;50.860;6.208;2022-09-28T03:13:05;10.67;;;8.40;;
7525;SDS011;3804;50.860;6.208;2022-09-28T03:15:34;10.00;;;8.53;;
7525;SDS011;3804;50.860;6.208;2022-09-28T03:18:01;10.63;;;8.03;;
7525;SDS011;3804;50.860;6.208;2022-09-28T03:20:29;9.80;;;7.97;;
7525;SDS011;3804;50.860;6.208;2022-09-28T03:22:56;12.47;;;8.87;;
7525;SDS011;3804;50.860;6.208;2022-09-28T03:25:42;10.53;;;8.80;;
7525;SDS011;3804;50.860;6.208;2022-09-28T03:28:09;10.23;;;8.40;;
7525;SDS011;3804;50.860;6.208;2022-09-28T03:30:38;11.13;;;8.47;;
7525;SDS011;3804;50.860;6.208;2022-09-28T03:33:05;10.43;;;8.53;;
7525;SDS011;3804;50.860;6.208;2022-09-28T03:35:32;9.33;;;8.20;;
7525;SDS011;3804;50.860;6.208;2022-09-28T03:37:59;11.53;;;8.17;;
7525;SDS011;3804;50.860;6.208;2022-09-28T03:40:28;10.47;;;8.57;;
7525;SDS011;3804;50.860;6.208;2022-09-28T03:42:55;10.33;;;8.37;;
7525;SDS011;3804;50.860;6.208;2022-09-28T03:45:21;9.53;;;8.27;;
7525;SDS011;3804;50.860;6.208;2022-09-28T03:47:49;10.17;;;7.90;;
7525;SDS011;3804;50.860;6.208;2022-09-28T03:50:17;10.40;;;8.13;;
7525;SDS011;3804;50.860;6.208;2022-09-28T03:52:44;9.70;;;8.30;;
7525;SDS011;3804;50.860;6.208;2022-09-28T03:55:10;10.93;;;8.30;;
7525;SDS011;3804;50.860;6.208;2022-09-28T03:57:37;9.50;;;8.07;;
7525;SDS011;3804;50.860;6.208;2022-09-28T04:00:04;10.33;;;7.63;;
7525;SDS011;3804;50.860;6.208;2022-09-28T04:02:39;11.23;;;7.90;;
7525;SDS011;3804;50.860;6.208;2022-09-28T04:05:06;9.83;;;8.00;;
7525;SDS011;3804;50.860;6.208;2022-09-28T04:07:33;10.93;;;7.60;;
7525;SDS011;3804;50.860;6.208;2022-09-28T04:09:59;8.63;;;7.30;;
7525;SDS011;3804;50.860;6.208;2022-09-28T04:12:26;11.20;;;7.50;;
7525;SDS011;3804;50.860;6.208;2022-09-28T04:14:53;10.00;;;7.40;;
7525;SDS011;3804;50.860;6.208;2022-09-28T04:17:19;9.57;;;7.63;;
7525;SDS011;3804;50.860;6.208;2022-09-28T04:19:46;8.10;;;7.30;;
7525;SDS011;3804;50.860;6.208;2022-09-28T04:22:22;9.10;;;7.20;;
7525;SDS011;3804;50.860;6.208;2022-09-28T04:24:49;8.03;;;6.70;;
7525;SDS011;3804;50.860;6.208;2022-09-28T04:27:16;7.07;;;6.37;;
7525;SDS011;3804;50.860;6.208;2022-09-28T04:30:01;12.37;;;6.57;;
7525;SDS011;3804;50.860;6.208;2022-09-28T04:32:30;8.07;;;6.77;;
7525;SDS011;3804;50.860;6.208;2022-09-28T04:34:57;10.13;;;6.33;;
7525;SDS011;3804;50.860;6.208;2022-09-28T04:37:23;8.43;;;6.67;;
7525;SDS011;3804;50.860;6.208;2022-09-28T04:39:50;7.33;;;6.63;;
7525;SDS011;3804;50.860;6.208;2022-09-28T04:42:18;7.83;;;6.50;;
7525;SDS011;3804;50.860;6.208;2022-09-28T04:44:45;8.53;;;6.53;;
7525;SDS011;3804;50.860;6.208;2022-09-28T04:47:11;8.83;;;6.33;;
7525;SDS011;3804;50.860;6.208;2022-09-28T04:50:06;8.73;;;6.30;;
7525;SDS011;3804;50.860;6.208;2022-09-28T04:52:35;11.23;;;6.53;;
7525;SDS011;3804;50.860;6.208;2022-09-28T04:55:02;10.00;;;6.63;;
7525;SDS011;3804;50.860;6.208;2022-09-28T04:57:29;8.17;;;6.23;;
7525;SDS011;3804;50.860;6.208;2022-09-28T04:59:56;9.13;;;7.30;;
7525;SDS011;3804;50.860;6.208;2022-09-28T05:02:22;12.40;;;6.90;;
7525;SDS011;3804;50.860;6.208;2022-09-28T05:04:50;10.03;;;7.57;;
7525;SDS011;3804;50.860;6.208;2022-09-28T05:07:33;10.47;;;7.93;;
7525;SDS011;3804;50.860;6.208;2022-09-28T05:10:02;11.63;;;8.00;;
7525;SDS011;3804;50.860;6.208;2022-09-28T05:12:31;11.03;;;8.00;;
7525;SDS011;3804;50.860;6.208;2022-09-28T05:14:58;10.53;;;8.63;;
7525;SDS011;3804;50.860;6.208;2022-09-28T05:17:26;10.53;;;8.00;;
7525;SDS011;3804;50.860;6.208;2022-09-28T05:20:13;11.47;;;8.57;;
7525;SDS011;3804;50.860;6.208;2022-09-28T05:22:40;10.30;;;7.57;;
7525;SDS011;3804;50.860;6.208;2022-09-28T05:25:08;9.63;;;7.43;;
7525;SDS011;3804;50.860;6.208;2022-09-28T05:27:46;8.53;;;7.63;;
7525;SDS011;3804;50.860;6.208;2022-09-28T05:30:42;11.47;;;8.07;;
7525;SDS011;3804;50.860;6.208;2022-09-28T05:33:28;9.67;;;7.63;;
7525;SDS011;3804;50.860;6.208;2022-09-28T05:36:08;11.47;;;8.47;;
7525;SDS011;3804;50.860;6.208;2022-09-28T05:38:36;9.73;;;8.07;;
7525;SDS011;3804;50.860;6.208;2022-09-28T05:41:03;10.70;;;8.27;;
7525;SDS011;3804;50.860;6.208;2022-09-28T05:43:32;12.50;;;10.10;;
7525;SDS011;3804;50.860;6.208;2022-09-28T05:46:02;11.43;;;9.10;;
7525;SDS011;3804;50.860;6.208;2022-09-28T05:48:28;12.77;;;10.10;;
7525;SDS011;3804;50.860;6.208;2022-09-28T05:50:55;13.70;;;9.77;;
7525;SDS011;3804;50.860;6.208;2022-09-28T05:53:25;13.63;;;10.03;;
7525;SDS011;3804;50.860;6.208;2022-09-28T05:55:51;12.77;;;10.17;;
7525;SDS011;3804;50.860;6.208;2022-09-28T05:58:18;13.17;;;10.87;;
7525;SDS011;3804;50.860;6.208;2022-09-28T06:00:44;14.10;;;10.03;;
7525;SDS011;3804;50.860;6.208;2022-09-28T06:03:12;18.20;;;11.40;;
7525;SDS011;3804;50.860;6.208;2022-09-28T06:05:39;14.93;;;10.20;;
7525;SDS011;3804;50.860;6.208;2022-09-28T06:08:06;15.70;;;11.07;;
7525;SDS011;3804;50.860;6.208;2022-09-28T06:10:34;13.43;;;10.67;;
7525;SDS011;3804;50.860;6.208;2022-09-28T06:13:01;15.97;;;12.03;;
7525;SDS011;3804;50.860;6.208;2022-09-28T06:15:29;14.13;;;11.27;;
7525;SDS011;3804;50.860;6.208;2022-09-28T06:18:01;15.47;;;10.70;;
7525;SDS011;3804;50.860;6.208;2022-09-28T06:20:36;13.20;;;11.00;;
7525;SDS011;3804;50.860;6.208;2022-09-28T06:23:10;15.47;;;11.60;;
7525;SDS011;3804;50.860;6.208;2022-09-28T06:25:38;13.80;;;10.53;;
7525;SDS011;3804;50.860;6.208;2022-09-28T06:28:07;16.40;;;11.37;;
7525;SDS011;3804;50.860;6.208;2022-09-28T06:30:34;13.77;;;11.30;;
7525;SDS011;3804;50.860;6.208;2022-09-28T06:33:06;16.57;;;10.53;;
7525;SDS011;3804;50.860;6.208;2022-09-28T06:35:35;14.97;;;11.47;;
7525;SDS011;3804;50.860;6.208;2022-09-28T06:38:01;13.30;;;10.80;;
7525;SDS011;3804;50.860;6.208;2022-09-28T06:40:29;15.33;;;10.47;;
7525;SDS011;3804;50.860;6.208;2022-09-28T06:42:56;14.90;;;10.47;;
7525;SDS011;3804;50.860;6.208;2022-09-28T06:45:42;14.40;;;9.80;;
7525;SDS011;3804;50.860;6.208;2022-09-28T06:48:22;12.90;;;9.60;;
7525;SDS011;3804;50.860;6.208;2022-09-28T06:50:48;17.33;;;11.30;;
7525;SDS011;3804;50.860;6.208;2022-09-28T06:53:27;16.90;;;10.23;;
7525;SDS011;3804;50.860;6.208;2022-09-28T06:56:00;10.77;;;9.07;;
7525;SDS011;3804;50.860;6.208;2022-09-28T06:58:28;10.17;;;8.73;;
7525;SDS011;3804;50.860;6.208;2022-09-28T07:00:56;10.87;;;8.53;;
7525;SDS011;3804;50.860;6.208;2022-09-28T07:03:29;14.90;;;8.57;;
7525;SDS011;3804;50.860;6.208;2022-09-28T07:05:56;12.23;;;8.73;;
7525;SDS011;3804;50.860;6.208;2022-09-28T07:09:00;15.03;;;9.13;;
7525;SDS011;3804;50.860;6.208;2022-09-28T07:12:14;13.47;;;8.83;;
7525;SDS011;3804;50.860;6.208;2022-09-28T07:15:00;11.27;;;7.47;;
7525;SDS011;3804;50.860;6.208;2022-09-28T07:17:27;17.87;;;9.60;;
7525;SDS011;3804;50.860;6.208;2022-09-28T07:19:57;13.80;;;9.00;;
7525;SDS011;3804;50.860;6.208;2022-09-28T07:22:34;9.57;;;6.63;;
7525;SDS011;3804;50.860;6.208;2022-09-28T07:25:11;9.20;;;6.87;;
7525;SDS011;3804;50.860;6.208;2022-09-28T07:27:57;10.73;;;6.20;;
7525;SDS011;3804;50.860;6.208;2022-09-28T07:30:47;11.93;;;6.50;;
7525;SDS011;3804;50.860;6.208;2022-09-28T07:33:34;7.50;;;5.17;;
7525;SDS011;3804;50.860;6.208;2022-09-28T07:36:13;6.03;;;5.43;;
7525;SDS011;3804;50.860;6.208;2022-09-28T07:38:43;7.03;;;5.27;;
7525;SDS011;3804;50.860;6.208;2022-09-28T07:41:10;8.93;;;6.37;;
7525;SDS011;3804;50.860;6.208;2022-09-28T07:43:41;7.27;;;4.90;;
7525;SDS011;3804;50.860;6.208;2022-09-28T07:46:08;6.17;;;4.43;;
7525;SDS011;3804;50.860;6.208;2022-09-28T07:48:42;5.73;;;4.53;;
7525;SDS011;3804;50.860;6.208;2022-09-28T07:51:20;4.40;;;3.73;;
7525;SDS011;3804;50.860;6.208;2022-09-28T07:54:07;4.50;;;3.60;;
7525;SDS011;3804;50.860;6.208;2022-09-28T07:56:56;5.37;;;3.60;;
7525;SDS011;3804;50.860;6.208;2022-09-28T07:59:34;4.13;;;3.00;;
7525;SDS011;3804;50.860;6.208;2022-09-28T08:02:26;5.53;;;3.17;;
7525;SDS011;3804;50.860;6.208;2022-09-28T08:04:53;3.10;;;2.30;;
7525;SDS011;3804;50.860;6.208;2022-09-28T08:07:20;4.50;;;2.23;;
7525;SDS011;3804;50.860;6.208;2022-09-28T08:09:56;3.27;;;2.30;;
7525;SDS011;3804;50.860;6.208;2022-09-28T08:12:43;1.80;;;1.63;;
7525;SDS011;3804;50.860;6.208;2022-09-28T08:15:29;2.53;;;2.13;;
7525;SDS011;3804;50.860;6.208;2022-09-28T08:18:14;2.10;;;1.80;;
7525;SDS011;3804;50.860;6.208;2022-09-28T08:20:41;4.00;;;2.00;;
7525;SDS011;3804;50.860;6.208;2022-09-28T08:23:26;1.90;;;1.60;;
7525;SDS011;3804;50.860;6.208;2022-09-28T08:25:53;4.83;;;1.80;;
7525;SDS011;3804;50.860;6.208;2022-09-28T08:28:22;2.87;;;1.77;;
7525;SDS011;3804;50.860;6.208;2022-09-28T08:30:52;3.20;;;2.13;;
7525;SDS011;3804;50.860;6.208;2022-09-28T08:33:25;2.00;;;1.80;;
7525;SDS011;3804;50.860;6.208;2022-09-28T08:36:10;5.30;;;2.40;;
7525;SDS011;3804;50.860;6.208;2022-09-28T08:39:03;4.93;;;2.47;;
7525;SDS011;3804;50.860;6.208;2022-09-28T08:42:14;2.20;;;2.00;;
7525;SDS011;3804;50.860;6.208;2022-09-28T08:44:47;3.40;;;2.50;;
7525;SDS011;3804;50.860;6.208;2022-09-28T08:50:31;3.40;;;2.40;;
7525;SDS011;3804;50.860;6.208;2022-09-28T08:53:41;2.23;;;2.03;;
7525;SDS011;3804;50.860;6.208;2022-09-28T08:59:15;3.50;;;2.10;;
7525;SDS011;3804;50.860;6.208;2022-09-28T09:01:47;5.33;;;2.00;;
7525;SDS011;3804;50.860;6.208;2022-09-28T09:04:15;2.33;;;2.03;;
7525;SDS011;3804;50.860;6.208;2022-09-28T09:09:46;3.53;;;2.37;;
7525;SDS011;3804;50.860;6.208;2022-09-28T09:12:34;3.20;;;2.03;;
7525;SDS011;3804;50.860;6.208;2022-09-28T09:17:35;1.93;;;1.73;;
7525;SDS011;3804;50.860;6.208;2022-09-28T09:20:24;2.80;;;2.20;;
7525;SDS011;3804;50.860;6.208;2022-09-28T09:23:05;3.13;;;2.30;;
7525;SDS011;3804;50.860;6.208;2022-09-28T09:25:41;3.10;;;2.40;;
7525;SDS011;3804;50.860;6.208;2022-09-28T09:28:37;3.17;;;2.60;;
7525;SDS011;3804;50.860;6.208;2022-09-28T09:31:06;4.13;;;2.63;;
7525;SDS011;3804;50.860;6.208;2022-09-28T09:45:55;1.93;;;1.60;;
7525;SDS011;3804;50.860;6.208;2022-09-28T09:53:45;2.40;;;1.70;;
7525;SDS011;3804;50.860;6.208;2022-09-28T09:58:57;2.27;;;1.70;;
7525;SDS011;3804;50.860;6.208;2022-09-28T10:01:37;2.37;;;1.60;;
7525;SDS011;3804;50.860;6.208;2022-09-28T10:04:18;1.73;;;1.30;;
7525;SDS011;3804;50.860;6.208;2022-09-28T10:06:47;3.60;;;1.67;;
7525;SDS011;3804;50.860;6.208;2022-09-28T10:09:29;3.90;;;1.40;;
7525;SDS011;3804;50.860;6.208;2022-09-28T10:12:19;1.63;;;1.50;;
7525;SDS011;3804;50.860;6.208;2022-09-28T10:14:47;1.80;;;1.53;;
7525;SDS011;3804;50.860;6.208;2022-09-28T10:17:15;2.93;;;1.60;;
7525;SDS011;3804;50.860;6.208;2022-09-28T10:20:10;2.80;;;1.50;;
7525;SDS011;3804;50.860;6.208;2022-09-28T10:23:35;3.37;;;1.60;;
7525;SDS011;3804;50.860;6.208;2022-09-28T10:26:14;1.60;;;1.50;;
7525;SDS011;3804;50.860;6.208;2022-09-28T10:28:44;1.87;;;1.30;;
7525;SDS011;3804;50.860;6.208;2022-09-28T10:33:59;2.03;;;1.30;;
7525;SDS011;3804;50.860;6.208;2022-09-28T10:36:26;2.40;;;1.03;;
7525;SDS011;3804;50.860;6.208;2022-09-28T10:38:53;3.33;;;1.37;;
7525;SDS011;3804;50.860;6.208;2022-09-28T10:41:27;2.23;;;1.43;;
7525;SDS011;3804;50.860;6.208;2022-09-28T10:44:01;3.93;;;1.73;;
7525;SDS011;3804;50.860;6.208;2022-09-28T10:46:55;2.70;;;1.20;;
7525;SDS011;3804;50.860;6.208;2022-09-28T10:49:26;1.73;;;1.20;;
7525;SDS011;3804;50.860;6.208;2022-09-28T10:51:56;2.40;;;1.33;;
7525;SDS011;3804;50.860;6.208;2022-09-28T10:54:31;3.37;;;1.93;;
7525;SDS011;3804;50.860;6.208;2022-09-28T10:56:59;1.70;;;1.37;;
7525;SDS011;3804;50.860;6.208;2022-09-28T10:59:43;2.03;;;1.20;;
7525;SDS011;3804;50.860;6.208;2022-09-28T11:02:35;2.43;;;1.50;;
7525;SDS011;3804;50.860;6.208;2022-09-28T11:05:17;1.87;;;1.10;;
7525;SDS011;3804;50.860;6.208;2022-09-28T11:07:46;1.67;;;1.10;;
7525;SDS011;3804;50.860;6.208;2022-09-28T11:10:21;1.30;;;1.10;;
7525;SDS011;3804;50.860;6.208;2022-09-28T11:12:50;3.47;;;1.43;;
7525;SDS011;3804;50.860;6.208;2022-09-28T11:15:20;2.90;;;1.20;;
7525;SDS011;3804;50.860;6.208;2022-09-28T11:17:49;0.93;;;0.87;;
7525;SDS011;3804;50.860;6.208;2022-09-28T11:22:57;2.83;;;1.30;;
7525;SDS011;3804;50.860;6.208;2022-09-28T11:25:28;3.60;;;1.23;;
7525;SDS011;3804;50.860;6.208;2022-09-28T11:27:58;2.97;;;1.10;;
7525;SDS011;3804;50.860;6.208;2022-09-28T11:33:12;2.97;;;1.10;;
7525;SDS011;3804;50.860;6.208;2022-09-28T11:48:50;1.10;;;1.00;;
7525;SDS011;3804;50.860;6.208;2022-09-28T11:51:20;1.30;;;1.20;;
7525;SDS011;3804;50.860;6.208;2022-09-28T11:53:53;1.60;;;0.90;;
7525;SDS011;3804;50.860;6.208;2022-09-28T11:56:32;0.93;;;0.80;;
7525;SDS011;3804;50.860;6.208;2022-09-28T11:59:05;2.30;;;0.90;;
7525;SDS011;3804;50.860;6.208;2022-09-28T12:04:45;1.63;;;1.20;;
7525;SDS011;3804;50.860;6.208;2022-09-28T12:07:17;2.97;;;1.37;;
7525;SDS011;3804;50.860;6.208;2022-09-28T12:12:34;2.57;;;1.20;;
7525;SDS011;3804;50.860;6.208;2022-09-28T12:15:12;1.77;;;0.90;;
7525;SDS011;3804;50.860;6.208;2022-09-28T12:20:43;1.67;;;1.13;;
7525;SDS011;3804;50.860;6.208;2022-09-28T12:23:19;2.40;;;1.40;;
7525;SDS011;3804;50.860;6.208;2022-09-28T12:26:02;3.87;;;1.73;;
7525;SDS011;3804;50.860;6.208;2022-09-28T12:30:58;1.30;;;1.00;;
7525;SDS011;3804;50.860;6.208;2022-09-28T12:33:25;3.50;;;1.40;;
7525;SDS011;3804;50.860;6.208;2022-09-28T12:36:06;3.17;;;1.43;;
7525;SDS011;3804;50.860;6.208;2022-09-28T12:41:26;2.87;;;1.80;;
7525;SDS011;3804;50.860;6.208;2022-09-28T12:44:02;2.43;;;1.60;;
7525;SDS011;3804;50.860;6.208;2022-09-28T12:51:55;3.33;;;1.90;;
7525;SDS011;3804;50.860;6.208;2022-09-28T13:07:27;2.87;;;1.90;;
7525;SDS011;3804;50.860;6.208;2022-09-28T13:12:37;5.90;;;2.33;;
7525;SDS011;3804;50.860;6.208;2022-09-28T13:18:01;4.13;;;1.90;;
7525;SDS011;3804;50.860;6.208;2022-09-28T13:23:21;4.80;;;1.90;;
7525;SDS011;3804;50.860;6.208;2022-09-28T13:25:54;2.93;;;1.90;;
7525;SDS011;3804;50.860;6.208;2022-09-28T13:28:22;2.43;;;2.00;;
7525;SDS011;3804;50.860;6.208;2022-09-28T13:30:53;4.40;;;2.00;;
7525;SDS011;3804;50.860;6.208;2022-09-28T13:33:24;3.30;;;2.60;;
7525;SDS011;3804;50.860;6.208;2022-09-28T13:35:51;3.57;;;2.27;;
7525;SDS011;3804;50.860;6.208;2022-09-28T13:41:08;3.73;;;2.00;;
7525;SDS011;3804;50.860;6.208;2022-09-28T13:46:07;3.03;;;1.83;;
7525;SDS011;3804;50.860;6.208;2022-09-28T13:48:46;3.07;;;2.17;;
7525;SDS011;3804;50.860;6.208;2022-09-28T13:51:17;4.57;;;2.13;;
7525;SDS011;3804;50.860;6.208;2022-09-28T13:58:41;6.13;;;2.37;;
7525;SDS011;3804;50.860;6.208;2022-09-28T14:01:10;3.20;;;1.83;;
7525;SDS011;3804;50.860;6.208;2022-09-28T14:16:39;3.07;;;2.37;;
7525;SDS011;3804;50.860;6.208;2022-09-28T14:19:17;6.30;;;2.40;;
7525;SDS011;3804;50.860;6.208;2022-09-28T14:24:16;5.83;;;2.40;;
7525;SDS011;3804;50.860;6.208;2022-09-28T14:26:49;2.90;;;2.17;;
7525;SDS011;3804;50.860;6.208;2022-09-28T14:31:57;7.13;;;2.33;;
7525;SDS011;3804;50.860;6.208;2022-09-28T14:34:25;3.43;;;2.20;;
7525;SDS011;3804;50.860;6.208;2022-09-28T14:36:55;3.57;;;2.33;;
7525;SDS011;3804;50.860;6.208;2022-09-28T14:39:42;6.50;;;2.30;;
7525;SDS011;3804;50.860;6.208;2022-09-28T14:42:28;2.77;;;1.83;;
7525;SDS011;3804;50.860;6.208;2022-09-28T14:47:36;0.77;;;0.77;;
7525;SDS011;3804;50.860;6.208;2022-09-28T14:50:17;1.60;;;0.80;;
7525;SDS011;3804;50.860;6.208;2022-09-28T14:52:49;0.50;;;0.50;;
7525;SDS011;3804;50.860;6.208;2022-09-28T14:55:18;0.60;;;0.60;;
7525;SDS011;3804;50.860;6.208;2022-09-28T14:57:50;1.07;;;0.60;;
7525;SDS011;3804;50.860;6.208;2022-09-28T15:00:18;0.77;;;0.77;;
7525;SDS011;3804;50.860;6.208;2022-09-28T15:02:49;0.57;;;0.57;;
7525;SDS011;3804;50.860;6.208;2022-09-28T15:05:22;0.60;;;0.60;;
7525;SDS011;3804;50.860;6.208;2022-09-28T15:07:50;1.27;;;0.70;;
7525;SDS011;3804;50.860;6.208;2022-09-28T15:10:28;2.97;;;0.90;;
7525;SDS011;3804;50.860;6.208;2022-09-28T15:13:02;2.23;;;1.13;;
7525;SDS011;3804;50.860;6.208;2022-09-28T15:15:38;3.77;;;1.50;;
7525;SDS011;3804;50.860;6.208;2022-09-28T15:18:15;1.67;;;1.10;;
7525;SDS011;3804;50.860;6.208;2022-09-28T15:20:45;2.13;;;1.03;;
7525;SDS011;3804;50.860;6.208;2022-09-28T15:23:55;1.67;;;1.30;;
7525;SDS011;3804;50.860;6.208;2022-09-28T15:26:03;2.50;;;1.33;;
7525;SDS011;3804;50.860;6.208;2022-09-28T15:28:34;6.63;;;1.57;;
7525;SDS011;3804;50.860;6.208;2022-09-28T15:31:02;3.03;;;1.30;;
7525;SDS011;3804;50.860;6.208;2022-09-28T15:33:30;1.37;;;1.00;;
7525;SDS011;3804;50.860;6.208;2022-09-28T15:38:46;3.00;;;1.20;;
7525;SDS011;3804;50.860;6.208;2022-09-28T15:41:16;2.60;;;2.40;;
7525;SDS011;3804;50.860;6.208;2022-09-28T15:43:43;2.53;;;2.00;;
7525;SDS011;3804;50.860;6.208;2022-09-28T15:46:23;1.90;;;1.70;;
7525;SDS011;3804;50.860;6.208;2022-09-28T15:48:53;3.93;;;2.20;;
7525;SDS011;3804;50.860;6.208;2022-09-28T15:51:22;3.90;;;1.97;;
7525;SDS011;3804;50.860;6.208;2022-09-28T15:53:57;4.80;;;2.23;;
7525;SDS011;3804;50.860;6.208;2022-09-28T15:56:26;4.23;;;2.57;;
7525;SDS011;3804;50.860;6.208;2022-09-28T16:01:39;4.27;;;2.60;;
7525;SDS011;3804;50.860;6.208;2022-09-28T16:07:04;4.23;;;2.40;;
7525;SDS011;3804;50.860;6.208;2022-09-28T16:09:32;4.33;;;2.13;;
7525;SDS011;3804;50.860;6.208;2022-09-28T16:12:07;2.20;;;1.83;;
7525;SDS011;3804;50.860;6.208;2022-09-28T16:14:34;3.00;;;1.97;;
7525;SDS011;3804;50.860;6.208;2022-09-28T16:17:01;2.43;;;2.23;;
7525;SDS011;3804;50.860;6.208;2022-09-28T16:19:30;2.77;;;2.13;;
7525;SDS011;3804;50.860;6.208;2022-09-28T16:22:02;4.20;;;2.27;;
7525;SDS011;3804;50.860;6.208;2022-09-28T16:24:32;3.13;;;2.00;;
7525;SDS011;3804;50.860;6.208;2022-09-28T16:27:00;2.57;;;2.37;;
7525;SDS011;3804;50.860;6.208;2022-09-28T16:29:38;3.20;;;2.33;;
7525;SDS011;3804;50.860;6.208;2022-09-28T16:37:39;4.50;;;2.43;;
7525;SDS011;3804;50.860;6.208;2022-09-28T16:40:09;2.33;;;2.03;;
7525;SDS011;3804;50.860;6.208;2022-09-28T16:42:36;2.30;;;2.10;;
7525;SDS011;3804;50.860;6.208;2022-09-28T16:45:04;3.30;;;2.40;;
7525;SDS011;3804;50.860;6.208;2022-09-28T16:47:31;2.87;;;2.30;;
7525;SDS011;3804;50.860;6.208;2022-09-28T16:49:59;2.90;;;1.90;;
7525;SDS011;3804;50.860;6.208;2022-09-28T16:52:27;3.53;;;2.50;;
7525;SDS011;3804;50.860;6.208;2022-09-28T16:55:12;5.33;;;2.70;;
7525;SDS011;3804;50.860;6.208;2022-09-28T16:58:02;2.60;;;2.40;;
7525;SDS011;3804;50.860;6.208;2022-09-28T17:00:30;2.90;;;2.70;;
7525;SDS011;3804;50.860;6.208;2022-09-28T17:02:57;4.57;;;2.50;;
7525;SDS011;3804;50.860;6.208;2022-09-28T17:05:24;5.73;;;3.10;;
7525;SDS011;3804;50.860;6.208;2022-09-28T17:07:58;4.93;;;3.70;;
7525;SDS011;3804;50.860;6.208;2022-09-28T17:13:22;4.87;;;3.57;;
7525;SDS011;3804;50.860;6.208;2022-09-28T17:15:48;5.10;;;3.80;;
7525;SDS011;3804;50.860;6.208;2022-09-28T17:18:18;4.93;;;4.53;;
7525;SDS011;3804;50.860;6.208;2022-09-28T17:20:49;5.63;;;3.40;;
7525;SDS011;3804;50.860;6.208;2022-09-28T17:23:16;7.67;;;3.87;;
7525;SDS011;3804;50.860;6.208;2022-09-28T17:25:43;6.77;;;4.17;;
7525;SDS011;3804;50.860;6.208;2022-09-28T17:28:18;5.90;;;4.17;;
7525;SDS011;3804;50.860;6.208;2022-09-28T17:30:45;7.50;;;3.60;;
7525;SDS011;3804;50.860;6.208;2022-09-28T17:33:12;7.07;;;3.90;;
7525;SDS011;3804;50.860;6.208;2022-09-28T17:35:39;4.23;;;3.50;;
7525;SDS011;3804;50.860;6.208;2022-09-28T17:38:06;4.97;;;3.27;;
7525;SDS011;3804;50.860;6.208;2022-09-28T17:40:34;3.93;;;3.30;;
7525;SDS011;3804;50.860;6.208;2022-09-28T17:43:01;7.90;;;3.20;;
7525;SDS011;3804;50.860;6.208;2022-09-28T17:45:31;3.30;;;3.00;;
7525;SDS011;3804;50.860;6.208;2022-09-28T17:47:58;3.57;;;3.03;;
7525;SDS011;3804;50.860;6.208;2022-09-28T17:50:26;3.60;;;2.90;;
7525;SDS011;3804;50.860;6.208;2022-09-28T17:52:53;4.83;;;2.93;;
7525;SDS011;3804;50.860;6.208;2022-09-28T17:55:23;2.63;;;2.43;;
7525;SDS011;3804;50.860;6.208;2022-09-28T17:57:53;3.50;;;2.80;;
7525;SDS011;3804;50.860;6.208;2022-09-28T18:00:19;4.20;;;2.87;;
7525;SDS011;3804;50.860;6.208;2022-09-28T18:02:47;3.43;;;2.47;;
7525;SDS011;3804;50.860;6.208;2022-09-28T18:05:14;5.30;;;3.67;;
7525;SDS011;3804;50.860;6.208;2022-09-28T18:07:42;7.60;;;5.03;;
7525;SDS011;3804;50.860;6.208;2022-09-28T18:10:13;7.60;;;4.90;;
7525;SDS011;3804;50.860;6.208;2022-09-28T18:12:40;5.17;;;3.40;;
7525;SDS011;3804;50.860;6.208;2022-09-28T18:15:08;5.13;;;3.57;;
7525;SDS011;3804;50.860;6.208;2022-09-28T18:17:35;3.03;;;2.43;;
7525;SDS011;3804;50.860;6.208;2022-09-28T18:20:02;3.17;;;2.87;;
7525;SDS011;3804;50.860;6.208;2022-09-28T18:22:29;4.33;;;3.60;;
7525;SDS011;3804;50.860;6.208;2022-09-28T18:24:56;5.10;;;3.70;;
7525;SDS011;3804;50.860;6.208;2022-09-28T18:27:22;5.67;;;4.03;;